createdAt,value
2022-10-28T00:00:13.627Z,94.00
2022-10-28T00:02:41.013Z,94.50
2022-10-28T00:05:08.480Z,94.70
2022-10-28T00:07:35.459Z,93.70
2022-10-28T00:10:02.319Z,93.50
2022-10-28T00:12:29.278Z,93.80
2022-10-28T00:14:56.200Z,93.90
2022-10-28T00:19:50.957Z,95.40
2022-10-28T00:22:17.777Z,96.30
2022-10-28T00:24:44.591Z,97.10
2022-10-28T00:27:11.520Z,96.30
2022-10-28T00:29:38.401Z,96.30
2022-10-28T00:32:05.612Z,96.30
2022-10-28T00:34:32.511Z,96.40
2022-10-28T00:36:59.378Z,96.30
2022-10-28T00:39:27.621Z,96.30
2022-10-28T00:42:03.641Z,95.60
2022-10-28T00:44:59.063Z,95.20
2022-10-28T00:47:36.684Z,94.80
2022-10-28T00:50:38.950Z,94.70
2022-10-28T00:53:11.219Z,93.60
2022-10-28T00:55:38.524Z,93.30
2022-10-28T00:58:07.776Z,92.70
2022-10-28T01:00:34.966Z,92.30
2022-10-28T01:03:01.885Z,91.70
2022-10-28T01:05:32.361Z,92.20
2022-10-28T01:08:02.215Z,92.20
2022-10-28T01:11:04.283Z,92.20
2022-10-28T01:14:26.076Z,92.30
2022-10-28T01:17:29.726Z,92.40
2022-10-28T01:20:57.862Z,92.40
2022-10-28T01:23:47.384Z,92.40
2022-10-28T01:26:30.183Z,92.00
2022-10-28T01:29:42.208Z,90.70
2022-10-28T01:32:41.927Z,89.00
2022-10-28T01:53:16.673Z,81.80
2022-10-28T01:55:48.027Z,81.10
2022-10-28T01:58:21.216Z,81.70
2022-10-28T02:00:49.731Z,82.60
2022-10-28T02:03:17.699Z,82.90
2022-10-28T02:08:54.368Z,82.10
2022-10-28T02:12:07.186Z,80.60
2022-10-28T02:15:26.368Z,77.10
2022-10-28T02:18:13.807Z,75.20
2022-10-28T02:21:06.506Z,74.40
2022-10-28T02:24:02.294Z,76.00
2022-10-28T02:26:39.919Z,79.50
2022-10-28T02:29:22.791Z,85.40
2022-10-28T02:32:13.102Z,90.80
2022-10-28T02:34:44.742Z,90.30
2022-10-28T02:37:17.460Z,90.00
2022-10-28T02:39:49.146Z,91.00
2022-10-28T02:42:22.316Z,90.50
2022-10-28T02:44:55.542Z,90.30
2022-10-28T02:47:29.282Z,90.00
2022-10-28T02:50:01.053Z,89.60
2022-10-28T02:52:31.481Z,90.30
2022-10-28T02:55:00.964Z,90.40
2022-10-28T02:57:35.529Z,90.60
2022-10-28T03:00:07.328Z,90.00
2022-10-28T03:02:34.494Z,89.10
2022-10-28T03:05:01.354Z,89.50
2022-10-28T03:07:31.061Z,88.90
2022-10-28T03:09:58.237Z,90.20
2022-10-28T03:12:25.165Z,90.80
2022-10-28T03:14:52.096Z,90.60
2022-10-28T03:17:19.077Z,90.70
2022-10-28T03:19:45.908Z,91.30
2022-10-28T03:22:12.834Z,91.60
2022-10-28T03:24:39.674Z,92.90
2022-10-28T03:27:06.607Z,94.50
2022-10-28T03:29:33.500Z,95.60
2022-10-28T03:32:00.564Z,95.80
2022-10-28T03:34:27.421Z,95.70
2022-10-28T03:36:54.279Z,95.30
2022-10-28T03:39:21.155Z,95.30
2022-10-28T03:41:48.136Z,95.60
2022-10-28T03:44:15.191Z,95.10
2022-10-28T03:46:42.043Z,95.50
2022-10-28T03:49:08.860Z,95.20
2022-10-28T03:51:35.766Z,95.50
2022-10-28T03:54:02.698Z,95.60
2022-10-28T03:56:29.597Z,94.80
2022-10-28T03:58:56.412Z,94.70
2022-10-28T04:01:23.383Z,94.20
2022-10-28T04:03:50.350Z,94.00
2022-10-28T04:06:17.206Z,94.30
2022-10-28T04:08:43.977Z,95.30
2022-10-28T04:11:10.900Z,95.00
2022-10-28T04:13:37.842Z,96.00
2022-10-28T04:16:05.456Z,97.80
2022-10-28T04:18:32.562Z,98.50
2022-10-28T04:20:59.452Z,98.80
2022-10-28T04:23:26.522Z,98.60
2022-10-28T04:25:54.314Z,97.90
2022-10-28T04:28:24.254Z,98.20
2022-10-28T04:30:51.281Z,99.00
2022-10-28T04:33:18.293Z,99.30
2022-10-28T04:35:45.500Z,99.90
2022-10-28T04:38:14.375Z,99.90
2022-10-28T04:40:41.427Z,99.90
2022-10-28T04:43:10.015Z,99.90
2022-10-28T04:45:37.902Z,99.90
2022-10-28T04:48:05.054Z,99.90
2022-10-28T04:50:31.972Z,99.90
2022-10-28T04:52:58.888Z,99.90
2022-10-28T04:55:25.853Z,99.90
2022-10-28T04:58:00.718Z,99.90
2022-10-28T05:00:29.503Z,99.90
2022-10-28T05:02:57.360Z,99.90
2022-10-28T05:05:24.557Z,99.90
2022-10-28T05:07:51.803Z,99.90
2022-10-28T05:10:18.939Z,99.90
2022-10-28T05:12:46.392Z,99.90
2022-10-28T05:15:14.852Z,99.90
2022-10-28T05:17:44.218Z,99.90
2022-10-28T05:20:12.662Z,99.90
2022-10-28T05:22:50.248Z,99.90
2022-10-28T05:25:18.477Z,99.90
2022-10-28T05:27:47.556Z,99.90
2022-10-28T05:30:14.898Z,99.90
2022-10-28T05:32:41.777Z,99.90
2022-10-28T05:35:09.790Z,99.90
2022-10-28T05:37:36.870Z,99.90
2022-10-28T05:40:04.649Z,99.90
2022-10-28T05:42:31.534Z,99.90
2022-10-28T05:44:58.433Z,99.90
2022-10-28T05:47:25.304Z,99.90
2022-10-28T05:49:52.231Z,99.90
2022-10-28T05:52:19.048Z,99.90
2022-10-28T05:54:46.010Z,99.90
2022-10-28T05:57:13.646Z,99.90
2022-10-28T05:59:40.585Z,99.90
2022-10-28T06:02:14.030Z,99.90
2022-10-28T06:04:42.149Z,99.90
2022-10-28T06:07:09.122Z,99.90
2022-10-28T06:09:36.313Z,99.90
2022-10-28T06:12:01.902Z,99.90
2022-10-28T06:14:28.824Z,99.90
2022-10-28T06:16:55.635Z,99.90
2022-10-28T06:19:22.539Z,99.90
2022-10-28T06:21:49.476Z,99.90
2022-10-28T06:24:16.383Z,99.90
2022-10-28T06:26:43.574Z,99.90
2022-10-28T06:29:11.106Z,99.90
2022-10-28T06:31:39.452Z,99.90
2022-10-28T06:34:08.140Z,99.90
2022-10-28T06:36:35.271Z,99.90
2022-10-28T06:39:05.289Z,99.90
2022-10-28T06:41:32.201Z,99.90
2022-10-28T06:43:59.123Z,96.60
2022-10-28T06:46:26.452Z,92.10
2022-10-28T06:48:55.636Z,89.40
2022-10-28T06:51:23.245Z,78.30
2022-10-28T06:53:53.034Z,75.40
2022-10-28T06:56:19.888Z,67.40
2022-10-28T06:58:53.784Z,56.70
2022-10-28T07:01:22.139Z,50.30
2022-10-28T07:03:49.376Z,47.10
2022-10-28T07:06:17.120Z,48.20
2022-10-28T07:08:44.199Z,44.00
2022-10-28T07:11:11.109Z,38.20
2022-10-28T07:13:37.945Z,30.70
2022-10-28T07:16:05.358Z,26.20
2022-10-28T07:18:32.722Z,26.20
2022-10-28T07:21:00.980Z,29.60
2022-10-28T07:23:29.080Z,28.40
2022-10-28T07:25:56.717Z,31.90
2022-10-28T07:28:25.184Z,35.90
2022-10-28T07:30:52.481Z,38.60
2022-10-28T07:33:19.354Z,39.80
2022-10-28T07:35:46.227Z,40.30
2022-10-28T07:38:13.139Z,38.30
2022-10-28T07:40:39.967Z,35.70
2022-10-28T07:43:06.816Z,32.90
2022-10-28T07:45:35.284Z,33.90
2022-10-28T07:48:02.831Z,32.90
2022-10-28T07:50:29.862Z,32.90
2022-10-28T07:52:56.944Z,32.90
2022-10-28T07:55:24.086Z,33.00
2022-10-28T07:57:51.122Z,33.60
2022-10-28T08:00:18.299Z,31.40
2022-10-28T08:02:45.140Z,20.40
2022-10-28T08:05:12.039Z,10.80
2022-10-28T08:07:39.185Z,4.80
2022-10-28T08:10:06.829Z,1.00
2022-10-28T08:12:33.945Z,1.00
2022-10-28T08:15:00.859Z,1.00
2022-10-28T08:17:27.717Z,1.00
2022-10-28T08:19:54.610Z,1.00
2022-10-28T08:22:21.560Z,1.00
2022-10-28T08:24:48.502Z,1.00
2022-10-28T08:27:15.469Z,1.00
2022-10-28T08:29:42.301Z,1.00
2022-10-28T08:32:09.636Z,1.00
2022-10-28T08:34:39.364Z,1.00
2022-10-28T08:37:09.637Z,1.00
2022-10-28T08:39:36.652Z,1.00
2022-10-28T08:42:39.638Z,1.00
2022-10-28T08:45:40.767Z,1.00
2022-10-28T08:48:22.096Z,1.00
2022-10-28T08:50:53.483Z,1.00
2022-10-28T08:53:29.218Z,1.00
2022-10-28T08:56:15.471Z,1.00
2022-10-28T08:58:45.158Z,1.00
2022-10-28T09:01:31.896Z,1.00
2022-10-28T09:04:02.345Z,1.00
2022-10-28T09:06:31.007Z,1.00
2022-10-28T09:08:59.248Z,1.00
2022-10-28T09:12:07.297Z,1.00
2022-10-28T09:15:08.904Z,1.00
2022-10-28T09:18:22.914Z,1.00
2022-10-28T09:20:57.509Z,1.00
2022-10-28T09:23:29.997Z,1.00
2022-10-28T09:26:20.742Z,1.00
2022-10-28T09:29:20.800Z,1.00
2022-10-28T09:31:53.205Z,1.00
2022-10-28T09:37:44.950Z,1.00
2022-10-28T09:40:25.407Z,1.00
2022-10-28T09:43:23.093Z,1.00
2022-10-28T09:45:52.561Z,1.00
2022-10-28T09:48:28.094Z,1.00
2022-10-28T09:50:57.279Z,1.00
2022-10-28T09:53:39.879Z,1.00
2022-10-28T09:58:44.832Z,1.00
2022-10-28T10:01:11.821Z,1.00
2022-10-28T10:03:40.177Z,1.00
2022-10-28T10:06:37.123Z,1.00
2022-10-28T10:09:05.030Z,1.00
2022-10-28T10:11:45.287Z,1.00
2022-10-28T10:14:34.140Z,1.00
2022-10-28T10:17:05.906Z,1.00
2022-10-28T10:20:18.053Z,1.00
2022-10-28T10:22:49.624Z,1.00
2022-10-28T10:25:25.472Z,1.00
2022-10-28T10:27:59.769Z,1.00
2022-10-28T10:30:45.200Z,1.00
2022-10-28T10:33:31.381Z,1.00
2022-10-28T10:36:05.343Z,1.00
2022-10-28T10:38:33.067Z,1.00
2022-10-28T10:41:00.295Z,1.00
2022-10-28T10:43:35.391Z,1.00
2022-10-28T10:46:15.041Z,1.00
2022-10-28T10:48:42.734Z,1.00
2022-10-28T10:51:27.593Z,1.00
2022-10-28T10:54:00.868Z,1.00
2022-10-28T10:56:33.313Z,1.00
2022-10-28T10:59:03.335Z,1.00
2022-10-28T11:01:39.931Z,1.00
2022-10-28T11:04:08.700Z,1.00
2022-10-28T11:06:41.967Z,1.00
2022-10-28T11:09:32.147Z,1.00
2022-10-28T11:11:59.548Z,1.00
2022-10-28T11:14:30.296Z,1.00
2022-10-28T11:17:02.534Z,1.00
2022-10-28T11:19:34.232Z,1.00
2022-10-28T11:22:46.214Z,1.00
2022-10-28T11:25:42.137Z,1.00
2022-10-28T11:28:47.597Z,1.00
2022-10-28T11:31:51.216Z,1.00
2022-10-28T11:35:13.505Z,1.00
2022-10-28T11:38:19.195Z,1.00
2022-10-28T11:41:41.486Z,1.00
2022-10-28T11:54:24.644Z,1.00
2022-10-28T11:59:58.064Z,1.00
2022-10-28T12:03:25.404Z,1.00
2022-10-28T12:06:43.346Z,1.00
2022-10-28T12:09:38.773Z,1.00
2022-10-28T12:12:44.792Z,1.00
2022-10-28T12:15:49.676Z,1.00
2022-10-28T12:18:41.682Z,1.00
2022-10-28T12:21:20.358Z,1.00
2022-10-28T12:23:48.519Z,1.00
2022-10-28T12:26:21.308Z,1.00
2022-10-28T12:28:57.284Z,1.00
2022-10-28T12:31:29.121Z,1.00
2022-10-28T12:34:02.083Z,1.00
2022-10-28T12:37:04.361Z,1.00
2022-10-28T12:39:56.291Z,1.00
2022-10-28T12:42:48.817Z,1.00
2022-10-28T12:45:18.435Z,1.00
2022-10-28T12:48:13.725Z,1.00
2022-10-28T12:51:01.378Z,1.00
2022-10-28T12:53:46.803Z,1.00
2022-10-28T12:56:24.303Z,1.00
2022-10-28T12:59:13.517Z,1.00
2022-10-28T13:01:44.106Z,1.00
2022-10-28T13:04:17.011Z,1.00
2022-10-28T13:07:12.433Z,1.00
2022-10-28T13:09:51.946Z,1.00
2022-10-28T13:15:56.533Z,1.00
2022-10-28T13:25:39.086Z,1.00
2022-10-28T13:28:06.460Z,1.00
2022-10-28T13:30:35.186Z,1.00
2022-10-28T13:33:21.028Z,1.00
2022-10-28T13:35:48.805Z,1.00
2022-10-28T13:38:24.079Z,1.00
2022-10-28T13:41:13.156Z,1.00
2022-10-28T13:44:25.609Z,1.00
2022-10-28T13:47:23.150Z,1.00
2022-10-28T13:50:34.603Z,1.00
2022-10-28T13:53:51.051Z,1.00
2022-10-28T13:56:48.202Z,1.00
2022-10-28T13:59:23.988Z,1.00
2022-10-28T14:02:07.848Z,1.00
2022-10-28T14:04:46.780Z,1.00
2022-10-28T14:07:17.543Z,1.00
2022-10-28T14:09:44.914Z,1.00
2022-10-28T14:12:32.656Z,1.00
2022-10-28T14:15:27.119Z,1.00
2022-10-28T14:18:44.351Z,1.00
2022-10-28T14:21:12.207Z,1.00
2022-10-28T14:23:54.030Z,1.00
2022-10-28T14:26:23.076Z,1.00
2022-10-28T14:28:52.134Z,1.00
2022-10-28T14:31:21.053Z,1.00
2022-10-28T14:34:34.376Z,1.00
2022-10-28T14:37:25.788Z,1.00
2022-10-28T14:40:03.663Z,1.00
2022-10-28T14:43:07.464Z,1.00
2022-10-28T14:46:35.670Z,1.00
2022-10-28T14:49:29.826Z,1.00
2022-10-28T14:52:16.578Z,1.00
2022-10-28T14:54:55.610Z,1.00
2022-10-28T14:57:32.652Z,1.00
2022-10-28T15:00:06.804Z,1.00
2022-10-28T15:02:35.579Z,1.00
2022-10-28T15:05:14.510Z,1.00
2022-10-28T15:07:42.546Z,1.00
2022-10-28T15:10:17.193Z,1.00
2022-10-28T15:12:52.037Z,1.00
2022-10-28T15:15:24.849Z,1.00
2022-10-28T15:17:52.293Z,1.00
2022-10-28T15:20:28.889Z,1.00
2022-10-28T15:23:29.190Z,1.00
2022-10-28T15:26:11.710Z,1.00
2022-10-28T15:28:39.735Z,1.00
2022-10-28T15:31:07.253Z,1.00
2022-10-28T15:33:41.927Z,1.00
2022-10-28T15:36:25.243Z,1.00
2022-10-28T15:39:16.226Z,1.00
2022-10-28T15:41:46.324Z,1.00
2022-10-28T15:44:54.223Z,1.00
2022-10-28T15:47:33.112Z,1.00
2022-10-28T15:50:04.967Z,1.00
2022-10-28T15:52:34.677Z,1.00
2022-10-28T15:55:04.168Z,1.00
2022-10-28T15:57:46.590Z,1.00
2022-10-28T16:00:31.886Z,1.00
2022-10-28T16:03:24.001Z,1.00
2022-10-28T16:05:51.395Z,1.00
2022-10-28T16:08:36.282Z,1.00
2022-10-28T16:11:13.619Z,1.00
2022-10-28T16:13:47.244Z,1.00
2022-10-28T16:16:27.970Z,1.00
2022-10-28T16:19:23.936Z,1.00
2022-10-28T16:21:50.872Z,1.00
2022-10-28T16:24:17.792Z,2.20
2022-10-28T16:26:44.654Z,3.30
2022-10-28T16:29:11.581Z,3.80
2022-10-28T16:31:38.709Z,4.20
2022-10-28T16:34:05.659Z,3.50
2022-10-28T16:36:32.539Z,3.20
2022-10-28T16:38:59.449Z,4.70
2022-10-28T16:41:26.324Z,5.30
2022-10-28T16:43:53.412Z,5.20
2022-10-28T16:46:20.323Z,6.20
2022-10-28T16:48:47.318Z,7.60
2022-10-28T16:51:18.078Z,8.70
2022-10-28T16:53:49.795Z,9.90
2022-10-28T16:56:17.874Z,11.50
2022-10-28T16:58:44.992Z,12.30
2022-10-28T17:01:13.479Z,13.10
2022-10-28T17:03:40.466Z,12.50
2022-10-28T17:06:08.832Z,11.90
2022-10-28T17:09:01.331Z,11.90
2022-10-28T17:11:22.800Z,12.50
2022-10-28T17:13:49.867Z,12.80
2022-10-28T17:16:16.723Z,11.60
2022-10-28T17:18:44.366Z,12.20
2022-10-28T17:21:11.300Z,10.70
2022-10-28T17:23:40.239Z,11.20
2022-10-28T17:26:07.267Z,11.70
2022-10-28T17:28:34.598Z,12.50
2022-10-28T17:31:08.228Z,13.20
2022-10-28T17:33:35.337Z,13.20
2022-10-28T17:36:09.056Z,14.00
2022-10-28T17:38:36.246Z,14.90
2022-10-28T17:41:03.149Z,15.10
2022-10-28T17:43:30.385Z,15.40
2022-10-28T17:46:07.496Z,16.10
2022-10-28T17:48:34.936Z,16.80
2022-10-28T17:51:01.972Z,17.50
2022-10-28T17:53:28.891Z,18.10
2022-10-28T17:55:59.773Z,19.10
2022-10-28T17:58:29.717Z,19.30
2022-10-28T18:01:01.743Z,18.20
2022-10-28T18:03:32.761Z,17.90
2022-10-28T18:06:03.715Z,18.10
2022-10-28T18:08:35.233Z,18.10
2022-10-28T18:11:02.321Z,18.90
2022-10-28T18:13:34.643Z,19.40
2022-10-28T18:16:05.789Z,19.30
2022-10-28T18:18:35.017Z,19.30
2022-10-28T18:21:06.599Z,19.10
2022-10-28T18:23:33.474Z,19.60
2022-10-28T18:26:05.757Z,19.80
2022-10-28T18:28:36.679Z,19.80
2022-10-28T18:31:05.949Z,20.10
2022-10-28T18:33:34.215Z,21.10
2022-10-28T18:36:05.975Z,22.10
2022-10-28T18:38:33.748Z,23.20
2022-10-28T18:41:00.701Z,24.40
2022-10-28T18:43:28.384Z,26.70
2022-10-28T18:46:00.059Z,26.80
2022-10-28T18:48:27.067Z,28.40
2022-10-28T18:50:58.999Z,29.30
2022-10-28T18:53:26.867Z,31.30
2022-10-28T18:55:59.249Z,30.70
2022-10-28T18:58:27.112Z,30.70
2022-10-28T19:00:54.179Z,33.20
2022-10-28T19:03:24.238Z,33.90
2022-10-28T19:05:51.252Z,35.10
2022-10-28T19:08:18.220Z,38.10
2022-10-28T19:10:46.341Z,38.50
2022-10-28T19:13:13.512Z,39.80
2022-10-28T19:15:46.795Z,40.20
2022-10-28T19:18:15.455Z,42.30
2022-10-28T19:20:45.586Z,43.30
2022-10-28T19:23:12.547Z,44.60
2022-10-28T19:25:39.499Z,45.80
2022-10-28T19:28:06.386Z,46.40
2022-10-28T19:30:34.623Z,46.90
2022-10-28T19:33:01.591Z,48.10
2022-10-28T19:35:28.580Z,47.80
2022-10-28T19:37:55.598Z,47.20
2022-10-28T19:40:22.597Z,48.60
2022-10-28T19:45:20.346Z,50.70
2022-10-28T19:47:49.749Z,52.50
2022-10-28T19:50:17.200Z,51.50
2022-10-28T19:52:44.107Z,51.60
2022-10-28T19:55:14.851Z,52.50
2022-10-28T19:57:42.126Z,54.10
2022-10-28T20:00:10.208Z,53.30
2022-10-28T20:02:37.181Z,54.30
2022-10-28T20:05:04.469Z,54.60
2022-10-28T20:07:31.407Z,58.00
2022-10-28T20:12:27.173Z,60.00
2022-10-28T20:14:55.183Z,60.20
2022-10-28T20:17:22.177Z,60.80
2022-10-28T20:19:49.081Z,62.80
2022-10-28T20:22:17.274Z,63.70
2022-10-28T20:24:44.180Z,62.90
2022-10-28T20:27:11.034Z,63.80
2022-10-28T20:29:38.116Z,63.00
2022-10-28T20:32:05.016Z,63.00
2022-10-28T20:34:31.846Z,63.00
2022-10-28T20:36:58.847Z,62.70
2022-10-28T20:39:26.436Z,61.30
2022-10-28T20:41:53.353Z,62.50
2022-10-28T20:44:20.967Z,62.00
2022-10-28T20:46:48.244Z,61.50
2022-10-28T20:49:15.349Z,60.40
2022-10-28T20:51:42.561Z,60.30
2022-10-28T20:54:09.620Z,60.80
2022-10-28T20:56:38.431Z,60.00
2022-10-28T20:59:05.945Z,59.40
2022-10-28T21:01:38.112Z,59.60
2022-10-28T21:04:10.747Z,60.00
2022-10-28T21:06:38.856Z,61.10
2022-10-28T21:09:06.200Z,61.60
2022-10-28T21:11:33.548Z,62.10
2022-10-28T21:14:01.858Z,63.50
2022-10-28T21:16:30.056Z,64.00
2022-10-28T21:18:59.144Z,65.90
2022-10-28T21:21:26.088Z,66.50
2022-10-28T21:23:53.138Z,67.80
2022-10-28T21:26:20.232Z,69.00
2022-10-28T21:28:53.139Z,70.10
2022-10-28T21:31:21.451Z,71.30
2022-10-28T21:36:18.769Z,71.30
2022-10-28T21:38:46.269Z,71.10
2022-10-28T21:41:18.029Z,72.60
2022-10-28T21:43:50.134Z,72.50
2022-10-28T21:46:18.823Z,72.10
2022-10-28T21:48:45.966Z,70.70
2022-10-28T21:51:15.213Z,72.30
2022-10-28T21:53:43.906Z,72.50
2022-10-28T21:56:18.177Z,72.60
2022-10-28T21:58:47.432Z,73.10
2022-10-28T22:01:23.880Z,74.70
2022-10-28T22:03:52.037Z,73.60
2022-10-28T22:06:18.921Z,75.60
2022-10-28T22:08:47.022Z,77.20
2022-10-28T22:11:19.315Z,78.30
2022-10-28T22:13:47.610Z,78.10
2022-10-28T22:16:17.028Z,80.10
2022-10-28T22:18:44.604Z,79.30
2022-10-28T22:21:31.814Z,79.10
2022-10-28T22:23:58.662Z,79.80
2022-10-28T22:26:28.652Z,80.10
2022-10-28T22:28:56.122Z,81.90
2022-10-28T22:31:27.158Z,83.60
2022-10-28T22:33:54.757Z,84.40
2022-10-28T22:36:26.222Z,86.10
2022-10-28T22:38:53.369Z,87.60
2022-10-28T22:41:26.049Z,89.80
2022-10-28T22:43:55.562Z,91.60
2022-10-28T22:46:24.313Z,91.60
2022-10-28T22:48:51.299Z,92.10
2022-10-28T22:51:18.383Z,92.20
2022-10-28T22:53:45.716Z,93.70
2022-10-28T22:56:17.467Z,95.30
2022-10-28T22:58:54.072Z,94.50
2022-10-28T23:01:21.806Z,94.20
2022-10-28T23:03:50.695Z,94.20
2022-10-28T23:06:20.580Z,93.60
2022-10-28T23:08:47.954Z,93.10
2022-10-28T23:11:17.057Z,93.50
2022-10-28T23:13:44.168Z,93.00
2022-10-28T23:16:16.215Z,92.70
2022-10-28T23:18:43.678Z,92.30
2022-10-28T23:21:16.648Z,92.30
2022-10-28T23:23:49.731Z,92.60
2022-10-28T23:26:20.115Z,92.90
2022-10-28T23:28:51.763Z,92.70
2022-10-28T23:31:19.000Z,93.20
2022-10-28T23:33:45.964Z,93.80
2022-10-28T23:36:14.425Z,94.10
2022-10-28T23:38:42.105Z,94.60
2022-10-28T23:41:15.753Z,96.10
2022-10-28T23:43:43.007Z,96.10
2022-10-28T23:46:10.841Z,97.10
2022-10-28T23:48:37.973Z,97.60
2022-10-28T23:51:05.205Z,98.90
2022-10-28T23:53:32.148Z,99.90
2022-10-28T23:55:59.054Z,99.90
2022-10-28T23:58:26.104Z,99.90
